createdAt,value
2022-08-22T00:01:56.436Z,1.48
2022-08-22T00:02:57.486Z,1.25
2022-08-22T00:03:01.249Z,1.17
2022-08-22T00:04:34.426Z,1.63
2022-08-22T00:07:15.103Z,1.70
2022-08-22T00:09:51.196Z,1.63
2022-08-22T00:12:27.607Z,1.25
2022-08-22T00:15:04.661Z,1.23
2022-08-22T00:17:48.312Z,1.55
2022-08-22T00:20:28.122Z,1.40
2022-08-22T00:23:12.352Z,1.60
2022-08-22T00:25:50.483Z,1.83
2022-08-22T00:28:24.762Z,1.98
2022-08-22T00:31:01.013Z,8.00
2022-08-22T00:33:44.418Z,7.32
2022-08-22T00:36:26.436Z,2.22
2022-08-22T00:39:07.223Z,1.60
2022-08-22T00:42:12.713Z,7.50
2022-08-22T00:45:15.226Z,3.92
2022-08-22T00:48:00.265Z,3.80
2022-08-22T00:51:07.977Z,9.15
2022-08-22T00:53:53.806Z,1.83
2022-08-22T00:56:55.102Z,1.63
2022-08-22T00:59:50.534Z,1.88
2022-08-22T01:02:33.786Z,2.10
2022-08-22T01:05:24.855Z,1.70
2022-08-22T01:08:12.688Z,3.88
2022-08-22T01:10:56.831Z,9.25
2022-08-22T01:13:42.368Z,2.50
2022-08-22T01:16:29.105Z,2.20
2022-08-22T01:19:28.313Z,1.92
2022-08-22T01:22:36.470Z,1.63
2022-08-22T01:25:51.764Z,1.40
2022-08-22T01:28:57.473Z,1.90
2022-08-22T01:32:02.559Z,1.70
2022-08-22T01:35:13.601Z,1.85
2022-08-22T01:38:09.943Z,2.13
2022-08-22T01:41:06.382Z,2.08
2022-08-22T01:44:05.321Z,1.83
2022-08-22T01:46:47.811Z,1.95
2022-08-22T01:49:24.061Z,2.55
2022-08-22T01:52:03.787Z,1.75
2022-08-22T01:54:43.819Z,2.25
2022-08-22T01:57:15.289Z,2.30
2022-08-22T01:59:49.575Z,2.10
2022-08-22T02:02:48.519Z,2.13
2022-08-22T02:05:28.489Z,4.07
2022-08-22T02:08:06.662Z,5.20
2022-08-22T02:10:51.997Z,2.88
2022-08-22T02:13:36.327Z,2.30
2022-08-22T02:16:15.046Z,4.18
2022-08-22T02:18:57.161Z,5.50
2022-08-22T02:21:35.832Z,3.33
2022-08-22T02:24:21.743Z,2.00
2022-08-22T02:27:06.324Z,3.13
2022-08-22T02:29:46.557Z,2.10
2022-08-22T02:32:25.451Z,2.97
2022-08-22T02:35:05.831Z,3.33
2022-08-22T02:37:43.320Z,2.33
2022-08-22T02:40:24.299Z,2.53
2022-08-22T02:43:03.082Z,2.95
2022-08-22T02:45:43.676Z,2.65
2022-08-22T02:48:35.829Z,3.20
2022-08-22T02:51:13.934Z,2.78
2022-08-22T02:53:52.920Z,3.72
2022-08-22T02:56:34.586Z,9.25
2022-08-22T02:59:19.408Z,5.13
2022-08-22T03:01:51.457Z,4.15
2022-08-22T03:04:29.863Z,3.30
2022-08-22T03:07:11.737Z,3.80
2022-08-22T03:09:49.608Z,3.10
2022-08-22T03:12:32.304Z,3.47
2022-08-22T03:15:10.004Z,3.28
2022-08-22T03:17:49.177Z,3.20
2022-08-22T03:20:39.406Z,3.35
2022-08-22T03:25:48.807Z,7.20
2022-08-22T03:28:26.686Z,5.35
2022-08-22T03:31:02.855Z,3.67
2022-08-22T03:33:34.425Z,4.28
2022-08-22T03:36:12.474Z,3.70
2022-08-22T03:39:07.299Z,3.65
2022-08-22T03:42:13.012Z,3.15
2022-08-22T03:45:09.982Z,3.00
2022-08-22T03:48:09.343Z,2.83
2022-08-22T03:51:14.157Z,4.05
2022-08-22T03:54:15.866Z,3.97
2022-08-22T03:57:21.916Z,3.60
2022-08-22T04:00:34.098Z,3.20
2022-08-22T04:03:36.179Z,4.32
2022-08-22T04:06:39.697Z,3.65
2022-08-22T04:09:49.361Z,3.83
2022-08-22T04:12:51.417Z,3.78
2022-08-22T04:15:55.579Z,4.40
2022-08-22T04:18:58.641Z,4.50
2022-08-22T04:21:55.222Z,3.78
2022-08-22T04:24:52.602Z,4.47
2022-08-22T04:27:30.356Z,4.22
2022-08-22T04:30:08.359Z,3.30
2022-08-22T04:32:48.013Z,3.72
2022-08-22T04:35:28.899Z,4.40
2022-08-22T04:38:02.055Z,4.20
2022-08-22T04:40:40.215Z,4.47
2022-08-22T04:43:15.358Z,4.20
2022-08-22T04:45:53.135Z,4.45
2022-08-22T04:48:33.933Z,3.97
2022-08-22T04:51:08.710Z,4.38
2022-08-22T04:53:58.881Z,4.43
2022-08-22T04:59:07.337Z,4.47
2022-08-22T05:01:45.191Z,3.90
2022-08-22T05:04:22.727Z,4.60
2022-08-22T05:06:57.179Z,4.28
2022-08-22T05:09:30.432Z,4.65
2022-08-22T05:12:05.646Z,4.28
2022-08-22T05:14:42.123Z,3.90
2022-08-22T05:17:15.650Z,4.25
2022-08-22T05:19:53.239Z,4.18
2022-08-22T05:22:28.009Z,4.40
2022-08-22T05:25:02.587Z,4.68
2022-08-22T05:27:36.633Z,5.25
2022-08-22T05:30:13.316Z,4.65
2022-08-22T05:32:51.860Z,4.03
2022-08-22T05:35:36.482Z,4.63
2022-08-22T05:38:09.562Z,4.13
2022-08-22T05:40:41.009Z,4.22
2022-08-22T05:43:14.264Z,4.38
2022-08-22T05:45:49.218Z,5.18
2022-08-22T05:48:21.422Z,4.18
2022-08-22T05:50:58.723Z,4.40
2022-08-22T05:53:33.063Z,4.60
2022-08-22T05:56:06.449Z,4.85
2022-08-22T05:58:52.626Z,4.68
2022-08-22T06:01:31.654Z,4.53
2022-08-22T06:04:09.935Z,4.38
2022-08-22T06:06:49.692Z,4.78
2022-08-22T06:09:25.991Z,5.00
2022-08-22T06:12:16.498Z,5.05
2022-08-22T06:15:02.142Z,4.88
2022-08-22T06:17:37.310Z,5.10
2022-08-22T06:20:11.159Z,4.75
2022-08-22T06:22:52.249Z,5.20
2022-08-22T06:25:27.502Z,5.50
2022-08-22T06:27:59.643Z,5.55
2022-08-22T06:30:32.086Z,5.20
2022-08-22T06:33:05.944Z,5.63
2022-08-22T06:35:51.356Z,5.32
2022-08-22T06:38:28.577Z,5.03
2022-08-22T06:41:01.483Z,5.68
2022-08-22T06:43:39.694Z,5.93
2022-08-22T06:46:10.641Z,5.47
2022-08-22T06:48:41.879Z,6.28
2022-08-22T06:51:13.986Z,6.10
2022-08-22T06:53:49.868Z,5.20
2022-08-22T06:56:24.617Z,5.57
2022-08-22T06:58:58.809Z,5.85
2022-08-22T07:01:33.561Z,5.75
2022-08-22T07:04:08.425Z,6.68
2022-08-22T07:06:41.916Z,5.68
2022-08-22T07:09:25.054Z,5.47
2022-08-22T07:11:57.369Z,5.63
2022-08-22T07:14:34.307Z,6.30
2022-08-22T07:17:08.385Z,5.82
2022-08-22T07:19:41.860Z,5.53
2022-08-22T07:22:18.471Z,5.28
2022-08-22T07:24:56.334Z,5.68
2022-08-22T07:27:43.569Z,5.50
2022-08-22T07:30:27.440Z,4.95
2022-08-22T07:33:25.899Z,6.07
2022-08-22T07:35:58.706Z,5.18
2022-08-22T07:38:43.121Z,5.45
2022-08-22T07:41:20.187Z,5.18
2022-08-22T07:43:54.914Z,5.53
2022-08-22T07:46:31.509Z,7.78
2022-08-22T07:49:09.666Z,6.10
2022-08-22T07:51:50.802Z,7.70
2022-08-22T07:54:28.808Z,5.80
2022-08-22T07:57:07.189Z,5.38
2022-08-22T07:59:39.987Z,5.25
2022-08-22T08:02:15.601Z,5.38
2022-08-22T08:04:46.895Z,4.45
2022-08-22T08:07:19.828Z,5.18
2022-08-22T08:09:54.172Z,4.97
2022-08-22T08:12:37.183Z,4.82
2022-08-22T08:15:11.370Z,4.63
2022-08-22T08:17:43.027Z,4.80
2022-08-22T08:20:17.453Z,4.18
2022-08-22T08:22:49.032Z,4.22
2022-08-22T08:25:23.021Z,3.83
2022-08-22T08:28:09.827Z,4.00
2022-08-22T08:30:45.968Z,4.35
2022-08-22T08:33:26.207Z,3.53
2022-08-22T08:36:04.078Z,3.42
2022-08-22T08:38:39.305Z,3.42
2022-08-22T08:41:41.745Z,2.60
2022-08-22T08:44:26.813Z,3.50
2022-08-22T08:47:23.008Z,2.63
2022-08-22T08:50:29.909Z,2.50
2022-08-22T08:53:38.236Z,2.40
2022-08-22T08:56:21.991Z,2.75
2022-08-22T08:59:10.879Z,2.88
2022-08-22T09:02:08.488Z,3.00
2022-08-22T09:05:13.673Z,3.00
2022-08-22T09:08:01.039Z,2.45
2022-08-22T09:10:57.880Z,2.95
2022-08-22T09:13:50.984Z,2.55
2022-08-22T09:16:47.278Z,2.35
2022-08-22T09:19:50.635Z,1.75
2022-08-22T09:22:50.069Z,2.25
2022-08-22T09:25:29.664Z,2.60
2022-08-22T09:28:20.493Z,5.30
2022-08-22T09:31:21.155Z,8.00
2022-08-22T09:34:10.752Z,1.52
2022-08-22T09:36:59.306Z,1.65
2022-08-22T09:39:37.083Z,1.38
2022-08-22T09:42:20.386Z,1.77
2022-08-22T09:45:01.303Z,1.52
2022-08-22T09:47:39.334Z,1.45
2022-08-22T09:50:17.587Z,1.48
2022-08-22T09:53:04.917Z,1.10
2022-08-22T09:55:45.662Z,1.10
2022-08-22T09:58:27.853Z,1.13
2022-08-22T10:01:07.137Z,1.08
2022-08-22T10:04:30.802Z,1.45
2022-08-22T10:07:12.020Z,1.00
2022-08-22T10:09:57.885Z,1.30
2022-08-22T10:12:36.092Z,1.10
2022-08-22T10:15:17.934Z,1.08
2022-08-22T10:18:02.213Z,1.38
2022-08-22T10:20:46.766Z,1.98
2022-08-22T10:23:23.970Z,1.20
2022-08-22T10:26:04.485Z,1.17
2022-08-22T10:28:41.610Z,0.98
2022-08-22T10:31:42.853Z,1.17
2022-08-22T10:34:36.965Z,1.13
2022-08-22T10:37:15.596Z,1.15
2022-08-22T10:39:50.267Z,1.02
2022-08-22T10:42:35.151Z,1.35
2022-08-22T10:45:35.291Z,1.27
2022-08-22T10:48:36.932Z,1.23
2022-08-22T10:51:16.529Z,1.27
2022-08-22T10:54:03.130Z,1.30
2022-08-22T10:56:40.579Z,1.35
2022-08-22T10:59:29.209Z,1.00
2022-08-22T11:02:10.521Z,1.30
2022-08-22T11:04:58.500Z,1.42
2022-08-22T11:07:48.936Z,1.15
2022-08-22T11:10:30.482Z,1.20
2022-08-22T11:13:15.843Z,0.93
2022-08-22T11:16:01.059Z,0.98
2022-08-22T11:19:14.671Z,1.40
2022-08-22T11:22:03.770Z,1.67
2022-08-22T11:25:06.224Z,2.22
2022-08-22T11:27:45.806Z,1.42
2022-08-22T11:30:18.377Z,1.45
2022-08-22T11:33:18.097Z,1.08
2022-08-22T11:35:54.852Z,0.85
2022-08-22T11:38:33.500Z,0.98
2022-08-22T11:41:11.240Z,1.00
2022-08-22T11:43:50.839Z,0.95
2022-08-22T11:46:26.960Z,1.00
2022-08-22T11:49:19.499Z,1.73
2022-08-22T11:52:19.851Z,1.33
2022-08-22T11:55:12.693Z,1.23
2022-08-22T11:57:45.967Z,1.65
2022-08-22T12:00:29.267Z,1.08
2022-08-22T12:03:29.543Z,1.13
2022-08-22T12:06:09.093Z,1.02
2022-08-22T12:09:09.259Z,1.23
2022-08-22T12:11:48.423Z,1.35
2022-08-22T12:14:26.905Z,1.45
2022-08-22T12:17:21.284Z,1.95
2022-08-22T12:20:16.394Z,1.63
2022-08-22T12:23:12.444Z,1.35
2022-08-22T12:25:58.572Z,2.65
2022-08-22T12:28:36.128Z,1.70
2022-08-22T12:31:18.147Z,1.40
2022-08-22T12:34:12.414Z,1.33
2022-08-22T12:36:55.981Z,1.20
2022-08-22T12:39:52.323Z,1.38
2022-08-22T12:42:52.327Z,1.40
2022-08-22T12:45:46.285Z,1.30
2022-08-22T12:48:36.575Z,1.10
2022-08-22T12:51:25.272Z,0.98
2022-08-22T12:54:29.905Z,1.13
2022-08-22T12:57:23.464Z,1.92
2022-08-22T12:59:59.098Z,1.00
2022-08-22T13:02:36.064Z,1.38
2022-08-22T13:05:19.920Z,1.50
2022-08-22T13:07:55.740Z,1.55
2022-08-22T13:13:12.222Z,1.10
2022-08-22T13:15:46.988Z,1.00
2022-08-22T13:18:31.217Z,1.77
2022-08-22T13:21:07.924Z,1.70
2022-08-22T13:23:44.813Z,1.30
2022-08-22T13:26:31.978Z,3.35
2022-08-22T13:29:26.567Z,1.45
2022-08-22T13:32:02.078Z,1.63
2022-08-22T13:34:43.514Z,1.35
2022-08-22T13:37:20.137Z,1.63
2022-08-22T13:39:57.811Z,0.95
2022-08-22T13:42:31.374Z,1.55
2022-08-22T13:45:13.435Z,1.50
2022-08-22T13:47:57.836Z,1.17
2022-08-22T13:50:37.529Z,1.95
2022-08-22T13:53:29.698Z,1.48
2022-08-22T13:56:15.618Z,1.17
2022-08-22T13:58:49.631Z,1.85
2022-08-22T14:01:43.693Z,1.00
2022-08-22T14:04:33.297Z,1.25
2022-08-22T14:07:25.595Z,1.02
2022-08-22T14:09:59.503Z,1.10
2022-08-22T14:12:50.543Z,1.13
2022-08-22T14:15:26.364Z,1.30
2022-08-22T14:18:14.026Z,1.55
2022-08-22T14:20:46.704Z,1.23
2022-08-22T14:23:27.093Z,1.50
2022-08-22T14:25:58.441Z,2.58
2022-08-22T14:28:32.585Z,1.60
2022-08-22T14:31:07.468Z,1.33
2022-08-22T14:33:48.149Z,1.45
2022-08-22T14:36:21.530Z,1.50
2022-08-22T14:38:56.255Z,1.52
2022-08-22T14:41:56.331Z,1.40
2022-08-22T14:44:27.810Z,1.40
2022-08-22T14:47:02.082Z,1.02
2022-08-22T14:49:52.654Z,0.98
2022-08-22T14:52:36.894Z,1.38
2022-08-22T14:55:14.886Z,1.95
2022-08-22T14:57:49.700Z,1.48
2022-08-22T15:00:34.323Z,1.63
2022-08-22T15:03:13.658Z,1.17
2022-08-22T15:05:50.914Z,1.27
2022-08-22T15:08:30.646Z,1.48
2022-08-22T15:11:23.883Z,1.00
2022-08-22T15:14:05.736Z,1.42
2022-08-22T15:16:40.392Z,1.25
2022-08-22T15:19:27.296Z,1.20
2022-08-22T15:22:13.911Z,1.30
2022-08-22T15:24:47.617Z,1.00
2022-08-22T15:27:21.809Z,1.25
2022-08-22T15:29:55.741Z,1.38
2022-08-22T15:32:27.954Z,1.40
2022-08-22T15:35:08.064Z,1.85
2022-08-22T15:37:58.300Z,1.35
2022-08-22T15:40:40.744Z,1.13
2022-08-22T15:43:28.862Z,1.33
2022-08-22T15:46:20.285Z,0.95
2022-08-22T15:49:02.064Z,1.20
2022-08-22T15:51:40.456Z,1.45
2022-08-22T15:54:24.824Z,1.00
2022-08-22T15:57:18.519Z,1.52
2022-08-22T15:59:58.178Z,1.23
2022-08-22T16:02:35.390Z,1.33
2022-08-22T16:05:26.042Z,1.50
2022-08-22T16:08:07.152Z,1.40
2022-08-22T16:10:44.478Z,0.95
2022-08-22T16:13:34.697Z,1.65
2022-08-22T16:16:12.280Z,0.88
2022-08-22T16:19:24.180Z,1.40
2022-08-22T16:22:12.540Z,1.02
2022-08-22T16:25:05.240Z,1.17
2022-08-22T16:27:39.019Z,1.20
2022-08-22T16:30:17.112Z,1.20
2022-08-22T16:32:58.131Z,1.20
2022-08-22T16:35:58.149Z,1.08
2022-08-22T16:38:33.697Z,1.40
2022-08-22T16:41:07.488Z,0.90
2022-08-22T16:43:40.331Z,1.02
2022-08-22T16:46:36.530Z,1.10
2022-08-22T16:49:06.924Z,1.10
2022-08-22T16:51:37.241Z,0.80
2022-08-22T16:54:46.368Z,1.00
2022-08-22T16:57:24.664Z,1.10
2022-08-22T17:00:09.875Z,1.15
2022-08-22T17:03:02.119Z,1.30
2022-08-22T17:05:43.687Z,1.00
2022-08-22T17:08:26.010Z,0.93
2022-08-22T17:11:05.659Z,1.05
2022-08-22T17:13:52.693Z,1.05
2022-08-22T17:16:54.204Z,1.48
2022-08-22T17:19:46.846Z,0.93
2022-08-22T17:22:29.206Z,1.50
2022-08-22T17:25:22.491Z,1.10
2022-08-22T17:27:58.289Z,1.70
2022-08-22T17:30:38.164Z,1.17
2022-08-22T17:33:19.427Z,1.42
2022-08-22T17:36:03.733Z,1.33
2022-08-22T17:38:48.069Z,1.30
2022-08-22T17:41:32.082Z,2.08
2022-08-22T17:44:11.837Z,1.08
2022-08-22T17:46:50.023Z,1.13
2022-08-22T17:49:31.480Z,3.35
2022-08-22T17:52:10.206Z,1.30
2022-08-22T17:54:45.156Z,0.98
2022-08-22T17:57:27.051Z,1.42
2022-08-22T18:00:02.407Z,1.27
2022-08-22T18:02:39.348Z,1.35
2022-08-22T18:05:19.541Z,0.90
2022-08-22T18:08:03.508Z,0.90
2022-08-22T18:10:44.689Z,1.27
2022-08-22T18:13:17.705Z,1.40
2022-08-22T18:15:53.247Z,1.50
2022-08-22T18:18:31.366Z,2.20
2022-08-22T18:21:11.081Z,1.40
2022-08-22T18:23:45.114Z,1.42
2022-08-22T18:26:27.050Z,1.05
2022-08-22T18:29:02.337Z,1.73
2022-08-22T18:31:40.934Z,1.00
2022-08-22T18:34:21.920Z,1.38
2022-08-22T18:37:03.571Z,1.63
2022-08-22T18:39:43.964Z,1.00
2022-08-22T18:42:25.956Z,3.55
2022-08-22T18:44:56.143Z,1.38
2022-08-22T18:47:30.093Z,11.27
2022-08-22T18:50:00.637Z,1.65
2022-08-22T18:52:41.655Z,1.48
2022-08-22T18:55:33.777Z,1.90
2022-08-22T18:58:28.839Z,1.50
2022-08-22T19:01:21.425Z,1.25
2022-08-22T19:04:10.203Z,1.83
2022-08-22T19:06:55.270Z,1.45
2022-08-22T19:09:51.415Z,1.67
2022-08-22T19:12:40.746Z,1.55
2022-08-22T19:15:27.581Z,1.63
2022-08-22T19:18:27.152Z,5.90
2022-08-22T19:21:32.206Z,3.50
2022-08-22T19:24:02.955Z,1.92
2022-08-22T19:26:48.127Z,1.42
2022-08-22T19:29:48.191Z,1.55
2022-08-22T19:33:03.201Z,1.10
2022-08-22T19:36:06.090Z,1.45
2022-08-22T19:41:40.326Z,1.50
2022-08-22T19:44:33.307Z,1.20
2022-08-22T19:47:10.362Z,1.42
2022-08-22T19:49:43.955Z,1.27
2022-08-22T19:52:28.213Z,1.23
2022-08-22T19:55:12.113Z,1.60
2022-08-22T19:57:49.339Z,0.93
2022-08-22T20:00:26.090Z,1.63
2022-08-22T20:03:04.720Z,1.73
2022-08-22T20:05:57.076Z,1.55
2022-08-22T20:08:42.854Z,1.38
2022-08-22T20:11:25.882Z,1.58
2022-08-22T20:14:14.292Z,1.48
2022-08-22T20:17:14.043Z,1.38
2022-08-22T20:22:47.173Z,1.50
2022-08-22T20:25:42.243Z,1.38
2022-08-22T20:28:30.069Z,1.83
2022-08-22T20:31:02.473Z,1.85
2022-08-22T20:33:38.374Z,1.63
2022-08-22T20:36:16.688Z,1.95
2022-08-22T20:39:04.571Z,1.75
2022-08-22T20:41:38.821Z,2.90
2022-08-22T20:44:16.050Z,1.88
2022-08-22T20:46:55.253Z,1.80
2022-08-22T20:49:31.632Z,1.75
2022-08-22T20:52:05.024Z,1.23
2022-08-22T20:54:38.117Z,1.60
2022-08-22T20:57:17.367Z,2.03
2022-08-22T20:59:55.976Z,1.90
2022-08-22T21:02:30.386Z,1.77
2022-08-22T21:05:05.412Z,1.70
2022-08-22T21:07:38.456Z,1.48
2022-08-22T21:10:23.774Z,2.13
2022-08-22T21:13:09.800Z,1.83
2022-08-22T21:15:43.644Z,1.80
2022-08-22T21:18:26.151Z,3.05
2022-08-22T21:21:17.049Z,1.95
2022-08-22T21:23:50.427Z,2.10
2022-08-22T21:26:26.381Z,1.55
2022-08-22T21:29:00.190Z,1.50
2022-08-22T21:31:34.073Z,1.85
2022-08-22T21:34:06.006Z,1.75
2022-08-22T21:36:41.110Z,1.90
2022-08-22T21:39:19.109Z,1.73
2022-08-22T21:41:53.217Z,1.55
2022-08-22T21:44:31.426Z,1.73
2022-08-22T21:47:19.129Z,1.48
2022-08-22T21:50:10.958Z,1.85
2022-08-22T21:52:46.475Z,1.73
2022-08-22T21:55:28.290Z,1.70
2022-08-22T21:58:36.625Z,2.00
2022-08-22T22:01:31.411Z,1.42
2022-08-22T22:04:02.485Z,2.33
2022-08-22T22:06:32.711Z,1.90
2022-08-22T22:09:05.535Z,3.35
2022-08-22T22:11:35.810Z,3.47
2022-08-22T22:14:06.020Z,3.55
2022-08-22T22:16:37.887Z,3.35
2022-08-22T22:19:11.929Z,3.00
2022-08-22T22:21:42.215Z,3.00
2022-08-22T22:24:15.082Z,3.45
2022-08-22T22:26:45.353Z,3.95
2022-08-22T22:29:15.507Z,4.28
2022-08-22T22:31:45.816Z,3.45
2022-08-22T22:34:16.043Z,3.75
2022-08-22T22:36:46.747Z,3.35
2022-08-22T22:39:19.803Z,3.30
2022-08-22T22:41:50.046Z,3.92
2022-08-22T22:44:21.571Z,3.40
2022-08-22T22:46:52.658Z,3.72
2022-08-22T22:49:22.765Z,3.15
2022-08-22T22:51:53.042Z,2.67
2022-08-22T22:54:27.310Z,3.42
2022-08-22T22:56:58.539Z,3.45
2022-08-22T22:59:29.102Z,3.45
2022-08-22T23:02:05.126Z,4.50
2022-08-22T23:04:36.846Z,3.38
2022-08-22T23:07:08.212Z,3.70
2022-08-22T23:09:44.973Z,3.33
2022-08-22T23:17:16.105Z,3.92
2022-08-22T23:19:47.647Z,4.25
2022-08-22T23:22:18.134Z,4.20
2022-08-22T23:24:52.578Z,4.15
2022-08-22T23:27:22.889Z,4.07
2022-08-22T23:29:53.248Z,4.50
2022-08-22T23:32:23.594Z,3.70
2022-08-22T23:34:56.364Z,3.63
2022-08-22T23:37:26.818Z,3.75
2022-08-22T23:39:59.668Z,3.83
2022-08-22T23:42:30.053Z,3.70
2022-08-22T23:45:00.793Z,4.78
2022-08-22T23:47:31.130Z,4.45
2022-08-22T23:50:04.318Z,4.75
2022-08-22T23:52:36.754Z,4.95
2022-08-22T23:55:10.416Z,4.05
2022-08-22T23:57:40.770Z,5.57
